sensor_id;sensor_type;location;lat;lon;timestamp;P1;durP1;ratioP1;P2;durP2;ratioP2
32451;SDS011;45528;52.102;5.242;2023-04-25T00:00:47;22.5;;;4.7;;
32451;SDS011;45528;52.102;5.242;2023-04-25T00:02:24;18.3;;;4.91;;
32451;SDS011;45528;52.102;5.242;2023-04-25T00:04:00;18.61;;;4.61;;
32451;SDS011;45528;52.102;5.242;2023-04-25T00:07:13;16.5;;;5.3;;
32451;SDS011;45528;52.102;5.242;2023-04-25T00:08:49;17.11;;;4.61;;
32451;SDS011;45528;52.102;5.242;2023-04-25T00:10:25;17.11;;;4.61;;
32451;SDS011;45528;52.102;5.242;2023-04-25T00:12:01;15.7;;;4.2;;
32451;SDS011;45528;52.102;5.242;2023-04-25T00:15:14;18.91;;;5.0;;
32451;SDS011;45528;52.102;5.242;2023-04-25T00:16:50;22.5;;;5.3;;
32451;SDS011;45528;52.102;5.242;2023-04-25T00:18:26;23.2;;;5.3;;
32451;SDS011;45528;52.102;5.242;2023-04-25T00:21:38;23.9;;;5.8;;
32451;SDS011;45528;52.102;5.242;2023-04-25T00:23:15;24.7;;;5.6;;
32451;SDS011;45528;52.102;5.242;2023-04-25T00:24:51;19.91;;;5.3;;
32451;SDS011;45528;52.102;5.242;2023-04-25T00:28:05;20.3;;;5.4;;
32451;SDS011;45528;52.102;5.242;2023-04-25T00:29:41;20.9;;;4.91;;
32451;SDS011;45528;52.102;5.242;2023-04-25T00:31:17;23.3;;;5.2;;
32451;SDS011;45528;52.102;5.242;2023-04-25T00:34:29;18.5;;;4.5;;
32451;SDS011;45528;52.102;5.242;2023-04-25T00:36:06;23.8;;;4.5;;
32451;SDS011;45528;52.102;5.242;2023-04-25T00:37:42;13.1;;;4.41;;
32451;SDS011;45528;52.102;5.242;2023-04-25T00:39:18;27.5;;;5.2;;
32451;SDS011;45528;52.102;5.242;2023-04-25T00:42:32;19.41;;;4.1;;
32451;SDS011;45528;52.102;5.242;2023-04-25T00:44:08;18.61;;;4.5;;
32451;SDS011;45528;52.102;5.242;2023-04-25T00:45:45;17.2;;;4.3;;
32451;SDS011;45528;52.102;5.242;2023-04-25T00:49:00;19.61;;;5.0;;
32451;SDS011;45528;52.102;5.242;2023-04-25T00:50:36;15.6;;;4.3;;
32451;SDS011;45528;52.102;5.242;2023-04-25T00:52:13;16.4;;;4.8;;
32451;SDS011;45528;52.102;5.242;2023-04-25T00:55:27;20.2;;;5.11;;
32451;SDS011;45528;52.102;5.242;2023-04-25T00:57:03;21.4;;;4.3;;
32451;SDS011;45528;52.102;5.242;2023-04-25T00:58:39;20.3;;;4.7;;
32451;SDS011;45528;52.102;5.242;2023-04-25T01:00:17;22.6;;;4.91;;
32451;SDS011;45528;52.102;5.242;2023-04-25T01:03:30;20.3;;;4.7;;
32451;SDS011;45528;52.102;5.242;2023-04-25T01:05:09;17.61;;;4.61;;
32451;SDS011;45528;52.102;5.242;2023-04-25T01:06:45;17.0;;;4.7;;
32451;SDS011;45528;52.102;5.242;2023-04-25T01:09:59;18.7;;;4.8;;
32451;SDS011;45528;52.102;5.242;2023-04-25T01:11:35;18.2;;;4.41;;
32451;SDS011;45528;52.102;5.242;2023-04-25T01:13:11;19.91;;;4.41;;
32451;SDS011;45528;52.102;5.242;2023-04-25T01:14:47;19.3;;;4.61;;
32451;SDS011;45528;52.102;5.242;2023-04-25T01:18:00;14.5;;;4.5;;
32451;SDS011;45528;52.102;5.242;2023-04-25T01:19:36;23.2;;;4.91;;
32451;SDS011;45528;52.102;5.242;2023-04-25T01:21:13;18.0;;;4.3;;
32451;SDS011;45528;52.102;5.242;2023-04-25T01:24:26;16.8;;;4.3;;
32451;SDS011;45528;52.102;5.242;2023-04-25T01:26:03;19.7;;;4.91;;
32451;SDS011;45528;52.102;5.242;2023-04-25T01:27:41;20.5;;;5.0;;
32451;SDS011;45528;52.102;5.242;2023-04-25T01:30:55;20.3;;;4.91;;
32451;SDS011;45528;52.102;5.242;2023-04-25T01:32:32;18.61;;;4.61;;
32451;SDS011;45528;52.102;5.242;2023-04-25T01:34:09;18.3;;;4.41;;
32451;SDS011;45528;52.102;5.242;2023-04-25T01:35:45;21.1;;;4.91;;
32451;SDS011;45528;52.102;5.242;2023-04-25T01:38:58;16.5;;;4.3;;
32451;SDS011;45528;52.102;5.242;2023-04-25T01:40:36;15.6;;;4.61;;
32451;SDS011;45528;52.102;5.242;2023-04-25T01:42:15;18.91;;;4.91;;
32451;SDS011;45528;52.102;5.242;2023-04-25T01:45:30;18.41;;;4.2;;
32451;SDS011;45528;52.102;5.242;2023-04-25T01:47:06;14.0;;;4.3;;
32451;SDS011;45528;52.102;5.242;2023-04-25T01:48:42;21.4;;;4.91;;
32451;SDS011;45528;52.102;5.242;2023-04-25T01:51:54;16.9;;;4.61;;
32451;SDS011;45528;52.102;5.242;2023-04-25T01:53:30;19.61;;;5.3;;
32451;SDS011;45528;52.102;5.242;2023-04-25T01:55:07;19.2;;;5.3;;
32451;SDS011;45528;52.102;5.242;2023-04-25T01:56:49;18.61;;;5.11;;
32451;SDS011;45528;52.102;5.242;2023-04-25T02:00:03;16.11;;;4.41;;
32451;SDS011;45528;52.102;5.242;2023-04-25T02:01:42;24.8;;;5.8;;
32451;SDS011;45528;52.102;5.242;2023-04-25T02:03:18;21.3;;;5.6;;
32451;SDS011;45528;52.102;5.242;2023-04-25T02:06:30;18.2;;;5.0;;
32451;SDS011;45528;52.102;5.242;2023-04-25T02:08:07;21.0;;;5.2;;
32451;SDS011;45528;52.102;5.242;2023-04-25T02:09:45;18.61;;;5.4;;
32451;SDS011;45528;52.102;5.242;2023-04-25T02:11:21;22.7;;;5.7;;
32451;SDS011;45528;52.102;5.242;2023-04-25T02:14:33;23.9;;;5.6;;
32451;SDS011;45528;52.102;5.242;2023-04-25T02:16:09;23.4;;;5.2;;
32451;SDS011;45528;52.102;5.242;2023-04-25T02:17:45;17.61;;;5.4;;
32451;SDS011;45528;52.102;5.242;2023-04-25T02:20:58;18.0;;;5.4;;
32451;SDS011;45528;52.102;5.242;2023-04-25T02:22:35;20.8;;;5.11;;
32451;SDS011;45528;52.102;5.242;2023-04-25T02:24:11;17.3;;;4.7;;
32451;SDS011;45528;52.102;5.242;2023-04-25T02:27:24;19.2;;;4.41;;
32451;SDS011;45528;52.102;5.242;2023-04-25T02:29:00;22.2;;;5.0;;
32451;SDS011;45528;52.102;5.242;2023-04-25T02:30:36;20.3;;;5.11;;
32451;SDS011;45528;52.102;5.242;2023-04-25T02:32:12;16.61;;;5.0;;
32451;SDS011;45528;52.102;5.242;2023-04-25T02:35:26;21.4;;;5.6;;
32451;SDS011;45528;52.102;5.242;2023-04-25T02:37:02;14.7;;;4.91;;
32451;SDS011;45528;52.102;5.242;2023-04-25T02:38:38;14.7;;;4.61;;
32451;SDS011;45528;52.102;5.242;2023-04-25T02:41:51;21.9;;;5.3;;
32451;SDS011;45528;52.102;5.242;2023-04-25T02:43:27;17.41;;;5.11;;
32451;SDS011;45528;52.102;5.242;2023-04-25T02:45:04;16.11;;;5.6;;
32451;SDS011;45528;52.102;5.242;2023-04-25T02:48:17;21.9;;;5.5;;
32451;SDS011;45528;52.102;5.242;2023-04-25T02:49:53;17.5;;;5.2;;
32451;SDS011;45528;52.102;5.242;2023-04-25T02:51:29;21.4;;;5.6;;
32451;SDS011;45528;52.102;5.242;2023-04-25T02:54:41;24.3;;;5.6;;
32451;SDS011;45528;52.102;5.242;2023-04-25T02:56:17;21.5;;;5.7;;
32451;SDS011;45528;52.102;5.242;2023-04-25T02:57:53;24.5;;;5.6;;
32451;SDS011;45528;52.102;5.242;2023-04-25T02:59:30;15.6;;;4.91;;
32451;SDS011;45528;52.102;5.242;2023-04-25T03:02:42;18.2;;;5.11;;
32451;SDS011;45528;52.102;5.242;2023-04-25T03:04:18;18.7;;;5.5;;
32451;SDS011;45528;52.102;5.242;2023-04-25T03:05:54;24.6;;;5.9;;
32451;SDS011;45528;52.102;5.242;2023-04-25T03:09:06;14.0;;;4.8;;
32451;SDS011;45528;52.102;5.242;2023-04-25T03:10:43;16.0;;;5.11;;
32451;SDS011;45528;52.102;5.242;2023-04-25T03:12:19;22.0;;;5.4;;
32451;SDS011;45528;52.102;5.242;2023-04-25T03:15:32;20.7;;;4.91;;
32451;SDS011;45528;52.102;5.242;2023-04-25T03:17:08;20.41;;;5.3;;
32451;SDS011;45528;52.102;5.242;2023-04-25T03:18:44;21.9;;;4.8;;
32451;SDS011;45528;52.102;5.242;2023-04-25T03:20:20;23.3;;;5.3;;
32451;SDS011;45528;52.102;5.242;2023-04-25T03:23:32;23.6;;;5.6;;
32451;SDS011;45528;52.102;5.242;2023-04-25T03:25:09;19.41;;;4.5;;
32451;SDS011;45528;52.102;5.242;2023-04-25T03:26:45;21.1;;;5.0;;
32451;SDS011;45528;52.102;5.242;2023-04-25T03:29:58;20.7;;;5.3;;
32451;SDS011;45528;52.102;5.242;2023-04-25T03:31:34;18.8;;;5.0;;
32451;SDS011;45528;52.102;5.242;2023-04-25T03:33:10;17.7;;;4.61;;
32451;SDS011;45528;52.102;5.242;2023-04-25T03:36:22;15.6;;;4.5;;
32451;SDS011;45528;52.102;5.242;2023-04-25T03:37:58;16.5;;;4.3;;
32451;SDS011;45528;52.102;5.242;2023-04-25T03:39:35;14.4;;;4.3;;
32451;SDS011;45528;52.102;5.242;2023-04-25T03:42:48;15.2;;;4.1;;
32451;SDS011;45528;52.102;5.242;2023-04-25T03:44:24;16.11;;;4.41;;
32451;SDS011;45528;52.102;5.242;2023-04-25T03:46:00;16.7;;;3.8;;
32451;SDS011;45528;52.102;5.242;2023-04-25T03:47:36;14.4;;;3.2;;
32451;SDS011;45528;52.102;5.242;2023-04-25T03:50:48;12.1;;;3.7;;
32451;SDS011;45528;52.102;5.242;2023-04-25T03:52:25;13.6;;;2.9;;
32451;SDS011;45528;52.102;5.242;2023-04-25T03:54:01;15.7;;;3.6;;
32451;SDS011;45528;52.102;5.242;2023-04-25T03:57:13;10.4;;;3.3;;
32451;SDS011;45528;52.102;5.242;2023-04-25T03:58:49;12.8;;;3.6;;
32451;SDS011;45528;52.102;5.242;2023-04-25T04:00:25;17.2;;;3.8;;
32451;SDS011;45528;52.102;5.242;2023-04-25T04:03:37;11.5;;;3.4;;
32451;SDS011;45528;52.102;5.242;2023-04-25T04:05:14;20.6;;;4.3;;
32451;SDS011;45528;52.102;5.242;2023-04-25T04:06:50;13.6;;;3.6;;
32451;SDS011;45528;52.102;5.242;2023-04-25T04:10:02;12.7;;;3.6;;
32451;SDS011;45528;52.102;5.242;2023-04-25T04:11:38;11.8;;;3.1;;
32451;SDS011;45528;52.102;5.242;2023-04-25T04:13:14;10.4;;;3.0;;
32451;SDS011;45528;52.102;5.242;2023-04-25T04:14:50;12.9;;;3.2;;
32451;SDS011;45528;52.102;5.242;2023-04-25T04:18:03;9.4;;;2.7;;
32451;SDS011;45528;52.102;5.242;2023-04-25T04:19:39;8.6;;;2.7;;
32451;SDS011;45528;52.102;5.242;2023-04-25T04:21:15;11.7;;;2.8;;
32451;SDS011;45528;52.102;5.242;2023-04-25T04:24:27;12.3;;;2.5;;
32451;SDS011;45528;52.102;5.242;2023-04-25T04:26:03;12.4;;;3.1;;
32451;SDS011;45528;52.102;5.242;2023-04-25T04:27:39;10.9;;;2.9;;
32451;SDS011;45528;52.102;5.242;2023-04-25T04:30:52;9.0;;;2.7;;
32451;SDS011;45528;52.102;5.242;2023-04-25T04:32:29;11.3;;;2.7;;
32451;SDS011;45528;52.102;5.242;2023-04-25T04:34:05;9.71;;;2.6;;
32451;SDS011;45528;52.102;5.242;2023-04-25T04:35:41;10.0;;;2.6;;
32451;SDS011;45528;52.102;5.242;2023-04-25T04:38:53;6.9;;;2.6;;
32451;SDS011;45528;52.102;5.242;2023-04-25T04:40:30;9.5;;;2.31;;
32451;SDS011;45528;52.102;5.242;2023-04-25T04:42:06;12.0;;;3.0;;
32451;SDS011;45528;52.102;5.242;2023-04-25T04:45:19;9.71;;;2.7;;
32451;SDS011;45528;52.102;5.242;2023-04-25T04:46:55;9.1;;;2.4;;
32451;SDS011;45528;52.102;5.242;2023-04-25T04:48:31;7.6;;;1.9;;
32451;SDS011;45528;52.102;5.242;2023-04-25T04:51:46;7.3;;;2.6;;
32451;SDS011;45528;52.102;5.242;2023-04-25T04:53:22;11.7;;;2.6;;
32451;SDS011;45528;52.102;5.242;2023-04-25T04:54:58;9.4;;;2.5;;
32451;SDS011;45528;52.102;5.242;2023-04-25T04:56:34;9.1;;;2.5;;
32451;SDS011;45528;52.102;5.242;2023-04-25T04:59:47;10.5;;;2.5;;
32451;SDS011;45528;52.102;5.242;2023-04-25T05:01:23;10.3;;;2.7;;
32451;SDS011;45528;52.102;5.242;2023-04-25T05:03:00;13.4;;;2.8;;
32451;SDS011;45528;52.102;5.242;2023-04-25T05:06:12;10.7;;;2.6;;
32451;SDS011;45528;52.102;5.242;2023-04-25T05:07:48;9.5;;;2.6;;
32451;SDS011;45528;52.102;5.242;2023-04-25T05:09:25;8.2;;;2.31;;
32451;SDS011;45528;52.102;5.242;2023-04-25T05:12:38;12.0;;;2.1;;
32451;SDS011;45528;52.102;5.242;2023-04-25T05:14:14;12.0;;;2.5;;
32451;SDS011;45528;52.102;5.242;2023-04-25T05:15:50;12.4;;;2.1;;
32451;SDS011;45528;52.102;5.242;2023-04-25T05:19:02;12.4;;;2.1;;
32451;SDS011;45528;52.102;5.242;2023-04-25T05:20:39;12.7;;;2.1;;
32451;SDS011;45528;52.102;5.242;2023-04-25T05:22:15;8.71;;;2.7;;
32451;SDS011;45528;52.102;5.242;2023-04-25T05:23:51;11.7;;;2.1;;
32451;SDS011;45528;52.102;5.242;2023-04-25T05:27:03;9.31;;;2.1;;
32451;SDS011;45528;52.102;5.242;2023-04-25T05:28:39;11.6;;;2.1;;
32451;SDS011;45528;52.102;5.242;2023-04-25T05:30:15;11.4;;;2.21;;
32451;SDS011;45528;52.102;5.242;2023-04-25T05:33:28;11.4;;;2.4;;
32451;SDS011;45528;52.102;5.242;2023-04-25T05:35:04;13.5;;;2.31;;
32451;SDS011;45528;52.102;5.242;2023-04-25T05:36:41;9.5;;;2.4;;
32451;SDS011;45528;52.102;5.242;2023-04-25T05:39:53;11.8;;;1.9;;
32451;SDS011;45528;52.102;5.242;2023-04-25T05:41:29;10.4;;;2.1;;
32451;SDS011;45528;52.102;5.242;2023-04-25T05:43:05;8.0;;;1.9;;
32451;SDS011;45528;52.102;5.242;2023-04-25T05:44:42;6.2;;;1.8;;
32451;SDS011;45528;52.102;5.242;2023-04-25T05:47:54;9.5;;;1.8;;
32451;SDS011;45528;52.102;5.242;2023-04-25T05:49:30;9.31;;;1.8;;
32451;SDS011;45528;52.102;5.242;2023-04-25T05:51:06;12.1;;;2.0;;
32451;SDS011;45528;52.102;5.242;2023-04-25T05:54:20;10.9;;;2.0;;
32451;SDS011;45528;52.102;5.242;2023-04-25T05:55:55;9.6;;;1.7;;
32451;SDS011;45528;52.102;5.242;2023-04-25T05:57:31;8.4;;;1.8;;
32451;SDS011;45528;52.102;5.242;2023-04-25T06:00:43;6.9;;;2.0;;
32451;SDS011;45528;52.102;5.242;2023-04-25T06:02:20;8.6;;;1.8;;
32451;SDS011;45528;52.102;5.242;2023-04-25T06:03:56;7.0;;;1.6;;
32451;SDS011;45528;52.102;5.242;2023-04-25T06:07:09;9.21;;;2.0;;
32451;SDS011;45528;52.102;5.242;2023-04-25T06:08:45;10.1;;;1.7;;
32451;SDS011;45528;52.102;5.242;2023-04-25T06:10:21;11.0;;;1.8;;
32451;SDS011;45528;52.102;5.242;2023-04-25T06:11:57;8.4;;;1.8;;
32451;SDS011;45528;52.102;5.242;2023-04-25T06:15:10;9.71;;;1.7;;
32451;SDS011;45528;52.102;5.242;2023-04-25T06:16:46;13.7;;;1.8;;
32451;SDS011;45528;52.102;5.242;2023-04-25T06:18:22;8.5;;;1.6;;
32451;SDS011;45528;52.102;5.242;2023-04-25T06:21:34;10.7;;;1.9;;
32451;SDS011;45528;52.102;5.242;2023-04-25T06:23:11;8.9;;;1.9;;
32451;SDS011;45528;52.102;5.242;2023-04-25T06:24:47;11.7;;;2.0;;
32451;SDS011;45528;52.102;5.242;2023-04-25T06:28:00;12.0;;;2.1;;
32451;SDS011;45528;52.102;5.242;2023-04-25T06:29:36;6.0;;;2.0;;
32451;SDS011;45528;52.102;5.242;2023-04-25T06:31:12;8.81;;;1.8;;
32451;SDS011;45528;52.102;5.242;2023-04-25T06:32:48;10.7;;;2.21;;
32451;SDS011;45528;52.102;5.242;2023-04-25T06:36:00;9.0;;;1.7;;
32451;SDS011;45528;52.102;5.242;2023-04-25T06:37:36;11.7;;;1.9;;
32451;SDS011;45528;52.102;5.242;2023-04-25T06:39:12;10.4;;;1.8;;
32451;SDS011;45528;52.102;5.242;2023-04-25T06:42:25;12.0;;;2.0;;
32451;SDS011;45528;52.102;5.242;2023-04-25T06:44:01;13.4;;;2.21;;
32451;SDS011;45528;52.102;5.242;2023-04-25T06:45:37;11.9;;;2.0;;
32451;SDS011;45528;52.102;5.242;2023-04-25T06:48:50;8.0;;;2.1;;
32451;SDS011;45528;52.102;5.242;2023-04-25T06:50:26;12.7;;;2.1;;
32451;SDS011;45528;52.102;5.242;2023-04-25T06:52:02;10.6;;;1.9;;
32451;SDS011;45528;52.102;5.242;2023-04-25T06:55:16;9.9;;;2.0;;
32451;SDS011;45528;52.102;5.242;2023-04-25T06:56:52;10.0;;;1.8;;
32451;SDS011;45528;52.102;5.242;2023-04-25T06:58:28;12.4;;;2.1;;
32451;SDS011;45528;52.102;5.242;2023-04-25T07:00:05;9.81;;;2.1;;
32451;SDS011;45528;52.102;5.242;2023-04-25T07:03:19;12.6;;;2.31;;
32451;SDS011;45528;52.102;5.242;2023-04-25T07:04:55;10.1;;;1.7;;
32451;SDS011;45528;52.102;5.242;2023-04-25T07:06:33;9.71;;;1.9;;
32451;SDS011;45528;52.102;5.242;2023-04-25T07:09:45;9.31;;;1.8;;
32451;SDS011;45528;52.102;5.242;2023-04-25T07:11:21;7.8;;;1.6;;
32451;SDS011;45528;52.102;5.242;2023-04-25T07:12:57;12.6;;;2.0;;
32451;SDS011;45528;52.102;5.242;2023-04-25T07:16:09;10.21;;;1.9;;
32451;SDS011;45528;52.102;5.242;2023-04-25T07:17:46;7.2;;;1.5;;
32451;SDS011;45528;52.102;5.242;2023-04-25T07:19:22;6.9;;;1.6;;
32451;SDS011;45528;52.102;5.242;2023-04-25T07:20:58;9.1;;;1.6;;
32451;SDS011;45528;52.102;5.242;2023-04-25T07:24:10;12.5;;;1.8;;
32451;SDS011;45528;52.102;5.242;2023-04-25T07:25:46;16.8;;;2.0;;
32451;SDS011;45528;52.102;5.242;2023-04-25T07:27:22;11.2;;;1.9;;
32451;SDS011;45528;52.102;5.242;2023-04-25T07:30:35;14.6;;;1.9;;
32451;SDS011;45528;52.102;5.242;2023-04-25T07:32:11;10.3;;;1.8;;
32451;SDS011;45528;52.102;5.242;2023-04-25T07:33:47;11.4;;;1.8;;
32451;SDS011;45528;52.102;5.242;2023-04-25T07:36:59;11.5;;;1.6;;
32451;SDS011;45528;52.102;5.242;2023-04-25T07:38:35;10.21;;;1.7;;
32451;SDS011;45528;52.102;5.242;2023-04-25T07:40:11;13.4;;;1.8;;
32451;SDS011;45528;52.102;5.242;2023-04-25T07:43:25;13.3;;;2.0;;
32451;SDS011;45528;52.102;5.242;2023-04-25T07:45:01;11.5;;;1.5;;
32451;SDS011;45528;52.102;5.242;2023-04-25T07:46:37;11.9;;;1.8;;
32451;SDS011;45528;52.102;5.242;2023-04-25T07:48:16;14.4;;;2.1;;
32451;SDS011;45528;52.102;5.242;2023-04-25T07:51:29;9.4;;;1.5;;
32451;SDS011;45528;52.102;5.242;2023-04-25T07:53:05;11.5;;;1.9;;
32451;SDS011;45528;52.102;5.242;2023-04-25T07:54:41;12.9;;;1.6;;
32451;SDS011;45528;52.102;5.242;2023-04-25T07:57:54;10.0;;;1.7;;
32451;SDS011;45528;52.102;5.242;2023-04-25T07:59:30;10.8;;;1.7;;
32451;SDS011;45528;52.102;5.242;2023-04-25T08:01:06;10.0;;;1.7;;
32451;SDS011;45528;52.102;5.242;2023-04-25T08:04:18;10.4;;;1.5;;
32451;SDS011;45528;52.102;5.242;2023-04-25T08:05:54;9.4;;;1.5;;
32451;SDS011;45528;52.102;5.242;2023-04-25T08:07:30;9.21;;;1.5;;
32451;SDS011;45528;52.102;5.242;2023-04-25T08:09:07;8.6;;;1.3;;
32451;SDS011;45528;52.102;5.242;2023-04-25T08:12:19;9.9;;;1.4;;
32451;SDS011;45528;52.102;5.242;2023-04-25T08:13:55;7.5;;;1.6;;
32451;SDS011;45528;52.102;5.242;2023-04-25T08:15:31;9.4;;;1.5;;
32451;SDS011;45528;52.102;5.242;2023-04-25T08:18:44;10.7;;;1.7;;
32451;SDS011;45528;52.102;5.242;2023-04-25T08:20:21;8.0;;;1.5;;
32451;SDS011;45528;52.102;5.242;2023-04-25T08:21:57;11.5;;;1.7;;
32451;SDS011;45528;52.102;5.242;2023-04-25T08:25:09;8.4;;;1.7;;
32451;SDS011;45528;52.102;5.242;2023-04-25T08:26:45;6.9;;;1.4;;
32451;SDS011;45528;52.102;5.242;2023-04-25T08:28:21;7.9;;;1.5;;
32451;SDS011;45528;52.102;5.242;2023-04-25T08:29:57;7.5;;;1.3;;
32451;SDS011;45528;52.102;5.242;2023-04-25T08:33:09;9.6;;;1.5;;
32451;SDS011;45528;52.102;5.242;2023-04-25T08:34:46;10.7;;;1.7;;
32451;SDS011;45528;52.102;5.242;2023-04-25T08:36:22;11.2;;;1.7;;
32451;SDS011;45528;52.102;5.242;2023-04-25T08:39:34;11.2;;;1.7;;
32451;SDS011;45528;52.102;5.242;2023-04-25T08:41:10;10.1;;;1.5;;
32451;SDS011;45528;52.102;5.242;2023-04-25T08:42:47;6.1;;;1.3;;
32451;SDS011;45528;52.102;5.242;2023-04-25T08:46:02;7.6;;;1.4;;
32451;SDS011;45528;52.102;5.242;2023-04-25T08:47:38;8.81;;;1.4;;
32451;SDS011;45528;52.102;5.242;2023-04-25T08:49:15;12.0;;;1.7;;
32451;SDS011;45528;52.102;5.242;2023-04-25T08:50:54;8.4;;;1.3;;
32451;SDS011;45528;52.102;5.242;2023-04-25T08:54:13;11.2;;;1.6;;
32451;SDS011;45528;52.102;5.242;2023-04-25T08:55:50;8.6;;;1.5;;
32451;SDS011;45528;52.102;5.242;2023-04-25T08:57:29;8.71;;;1.3;;
32451;SDS011;45528;52.102;5.242;2023-04-25T09:00:43;8.0;;;1.4;;
32451;SDS011;45528;52.102;5.242;2023-04-25T09:02:21;8.4;;;1.2;;
32451;SDS011;45528;52.102;5.242;2023-04-25T09:03:57;12.7;;;1.5;;
32451;SDS011;45528;52.102;5.242;2023-04-25T09:05:33;7.6;;;1.2;;
32451;SDS011;45528;52.102;5.242;2023-04-25T09:08:46;6.3;;;1.6;;
32451;SDS011;45528;52.102;5.242;2023-04-25T09:10:25;5.8;;;1.2;;
32451;SDS011;45528;52.102;5.242;2023-04-25T09:12:03;6.0;;;1.0;;
32451;SDS011;45528;52.102;5.242;2023-04-25T09:15:16;7.0;;;1.11;;
32451;SDS011;45528;52.102;5.242;2023-04-25T09:17:00;5.4;;;1.0;;
32451;SDS011;45528;52.102;5.242;2023-04-25T09:18:37;8.81;;;1.0;;
32451;SDS011;45528;52.102;5.242;2023-04-25T09:20:13;6.0;;;1.11;;
32451;SDS011;45528;52.102;5.242;2023-04-25T09:23:26;4.61;;;1.0;;
32451;SDS011;45528;52.102;5.242;2023-04-25T09:25:04;5.6;;;1.0;;
32451;SDS011;45528;52.102;5.242;2023-04-25T09:26:44;4.61;;;0.9;;
32451;SDS011;45528;52.102;5.242;2023-04-25T09:30:00;7.6;;;1.0;;
32451;SDS011;45528;52.102;5.242;2023-04-25T09:31:36;5.11;;;1.2;;
32451;SDS011;45528;52.102;5.242;2023-04-25T09:33:12;7.0;;;1.11;;
32451;SDS011;45528;52.102;5.242;2023-04-25T09:34:50;5.7;;;1.0;;
32451;SDS011;45528;52.102;5.242;2023-04-25T09:38:07;3.9;;;0.9;;
32451;SDS011;45528;52.102;5.242;2023-04-25T09:39:44;7.0;;;1.3;;
32451;SDS011;45528;52.102;5.242;2023-04-25T09:41:22;6.8;;;1.2;;
32451;SDS011;45528;52.102;5.242;2023-04-25T09:44:35;9.4;;;1.5;;
32451;SDS011;45528;52.102;5.242;2023-04-25T09:46:12;5.3;;;1.0;;
32451;SDS011;45528;52.102;5.242;2023-04-25T09:47:48;5.5;;;1.2;;
32451;SDS011;45528;52.102;5.242;2023-04-25T09:51:03;5.4;;;1.2;;
32451;SDS011;45528;52.102;5.242;2023-04-25T09:52:42;7.7;;;1.2;;
32451;SDS011;45528;52.102;5.242;2023-04-25T09:54:19;6.5;;;1.11;;
32451;SDS011;45528;52.102;5.242;2023-04-25T09:55:55;7.5;;;1.11;;
32451;SDS011;45528;52.102;5.242;2023-04-25T09:59:08;4.91;;;1.11;;
32451;SDS011;45528;52.102;5.242;2023-04-25T10:00:46;4.61;;;1.0;;
32451;SDS011;45528;52.102;5.242;2023-04-25T10:02:24;5.6;;;1.11;;
32451;SDS011;45528;52.102;5.242;2023-04-25T10:05:42;5.6;;;1.0;;
32451;SDS011;45528;52.102;5.242;2023-04-25T10:07:19;10.1;;;1.2;;
32451;SDS011;45528;52.102;5.242;2023-04-25T10:08:57;8.5;;;1.2;;
32451;SDS011;45528;52.102;5.242;2023-04-25T10:10:34;7.5;;;1.2;;
32451;SDS011;45528;52.102;5.242;2023-04-25T10:13:48;12.7;;;1.6;;
32451;SDS011;45528;52.102;5.242;2023-04-25T10:15:26;5.4;;;1.11;;
32451;SDS011;45528;52.102;5.242;2023-04-25T10:17:03;7.6;;;1.3;;
32451;SDS011;45528;52.102;5.242;2023-04-25T10:20:15;7.7;;;1.3;;
32451;SDS011;45528;52.102;5.242;2023-04-25T10:21:52;6.3;;;1.2;;
32451;SDS011;45528;52.102;5.242;2023-04-25T10:23:33;9.6;;;1.5;;
32451;SDS011;45528;52.102;5.242;2023-04-25T10:25:11;9.5;;;1.2;;
32451;SDS011;45528;52.102;5.242;2023-04-25T10:28:26;4.3;;;1.2;;
32451;SDS011;45528;52.102;5.242;2023-04-25T10:30:02;7.9;;;1.11;;
32451;SDS011;45528;52.102;5.242;2023-04-25T10:31:45;8.1;;;1.3;;
32451;SDS011;45528;52.102;5.242;2023-04-25T10:35:11;8.31;;;1.5;;
32451;SDS011;45528;52.102;5.242;2023-04-25T10:36:50;9.0;;;1.2;;
32451;SDS011;45528;52.102;5.242;2023-04-25T10:38:27;8.1;;;1.3;;
32451;SDS011;45528;52.102;5.242;2023-04-25T10:40:07;8.31;;;1.3;;
32451;SDS011;45528;52.102;5.242;2023-04-25T10:43:33;5.7;;;1.2;;
32451;SDS011;45528;52.102;5.242;2023-04-25T10:45:15;5.6;;;1.11;;
32451;SDS011;45528;52.102;5.242;2023-04-25T10:46:51;7.4;;;1.2;;
32451;SDS011;45528;52.102;5.242;2023-04-25T10:48:27;5.3;;;1.11;;
32451;SDS011;45528;52.102;5.242;2023-04-25T10:51:43;6.4;;;1.2;;
32451;SDS011;45528;52.102;5.242;2023-04-25T10:53:19;6.1;;;1.11;;
32451;SDS011;45528;52.102;5.242;2023-04-25T10:54:59;5.7;;;1.2;;
32451;SDS011;45528;52.102;5.242;2023-04-25T10:56:41;5.2;;;1.11;;
32451;SDS011;45528;52.102;5.242;2023-04-25T10:59:59;4.61;;;0.9;;
32451;SDS011;45528;52.102;5.242;2023-04-25T11:01:40;3.6;;;0.8;;
32451;SDS011;45528;52.102;5.242;2023-04-25T11:03:20;7.6;;;1.2;;
32451;SDS011;45528;52.102;5.242;2023-04-25T11:04:57;4.3;;;1.0;;
32451;SDS011;45528;52.102;5.242;2023-04-25T11:08:36;5.3;;;1.11;;
32451;SDS011;45528;52.102;5.242;2023-04-25T11:10:26;5.5;;;1.0;;
32451;SDS011;45528;52.102;5.242;2023-04-25T11:12:03;3.5;;;1.0;;
32451;SDS011;45528;52.102;5.242;2023-04-25T11:13:40;6.1;;;1.2;;
32451;SDS011;45528;52.102;5.242;2023-04-25T11:15:16;6.1;;;1.0;;
32451;SDS011;45528;52.102;5.242;2023-04-25T11:18:28;6.1;;;1.11;;
32451;SDS011;45528;52.102;5.242;2023-04-25T11:20:05;7.5;;;1.2;;
32451;SDS011;45528;52.102;5.242;2023-04-25T11:21:43;4.7;;;0.9;;
32451;SDS011;45528;52.102;5.242;2023-04-25T11:24:55;5.8;;;1.11;;
32451;SDS011;45528;52.102;5.242;2023-04-25T11:26:31;8.0;;;0.9;;
32451;SDS011;45528;52.102;5.242;2023-04-25T11:28:07;3.8;;;0.9;;
32451;SDS011;45528;52.102;5.242;2023-04-25T11:31:20;6.7;;;1.11;;
32451;SDS011;45528;52.102;5.242;2023-04-25T11:32:57;3.6;;;0.8;;
32451;SDS011;45528;52.102;5.242;2023-04-25T11:34:34;5.4;;;1.11;;
32451;SDS011;45528;52.102;5.242;2023-04-25T11:36:10;5.8;;;1.11;;
32451;SDS011;45528;52.102;5.242;2023-04-25T11:39:23;3.7;;;1.0;;
32451;SDS011;45528;52.102;5.242;2023-04-25T11:41:00;5.9;;;0.9;;
32451;SDS011;45528;52.102;5.242;2023-04-25T11:42:37;4.0;;;0.9;;
32451;SDS011;45528;52.102;5.242;2023-04-25T11:45:53;4.3;;;1.0;;
32451;SDS011;45528;52.102;5.242;2023-04-25T11:47:29;6.4;;;0.9;;
32451;SDS011;45528;52.102;5.242;2023-04-25T11:49:05;5.11;;;0.9;;
32451;SDS011;45528;52.102;5.242;2023-04-25T11:52:17;4.41;;;1.0;;
32451;SDS011;45528;52.102;5.242;2023-04-25T11:53:53;5.5;;;1.11;;
32451;SDS011;45528;52.102;5.242;2023-04-25T11:55:29;4.91;;;1.2;;
32451;SDS011;45528;52.102;5.242;2023-04-25T11:57:05;7.3;;;1.11;;
32451;SDS011;45528;52.102;5.242;2023-04-25T12:00:37;4.8;;;1.0;;
32451;SDS011;45528;52.102;5.242;2023-04-25T12:02:23;2.7;;;0.9;;
32451;SDS011;45528;52.102;5.242;2023-04-25T12:04:10;5.9;;;0.8;;
32451;SDS011;45528;52.102;5.242;2023-04-25T12:05:54;8.5;;;1.2;;
32451;SDS011;45528;52.102;5.242;2023-04-25T12:07:38;6.5;;;1.0;;
32451;SDS011;45528;52.102;5.242;2023-04-25T12:10:55;5.7;;;1.0;;
32451;SDS011;45528;52.102;5.242;2023-04-25T12:12:32;3.4;;;0.8;;
32451;SDS011;45528;52.102;5.242;2023-04-25T12:14:08;4.0;;;0.9;;
32451;SDS011;45528;52.102;5.242;2023-04-25T12:17:20;4.5;;;0.8;;
32451;SDS011;45528;52.102;5.242;2023-04-25T12:18:58;2.6;;;0.8;;
32451;SDS011;45528;52.102;5.242;2023-04-25T12:20:34;3.7;;;0.9;;
32451;SDS011;45528;52.102;5.242;2023-04-25T12:23:56;3.8;;;0.7;;
32451;SDS011;45528;52.102;5.242;2023-04-25T12:25:33;7.3;;;0.9;;
32451;SDS011;45528;52.102;5.242;2023-04-25T12:27:13;5.7;;;1.0;;
32451;SDS011;45528;52.102;5.242;2023-04-25T12:28:51;5.4;;;1.0;;
32451;SDS011;45528;52.102;5.242;2023-04-25T12:32:03;7.5;;;1.11;;
32451;SDS011;45528;52.102;5.242;2023-04-25T12:33:39;5.6;;;0.9;;
32451;SDS011;45528;52.102;5.242;2023-04-25T12:35:15;8.6;;;1.11;;
32451;SDS011;45528;52.102;5.242;2023-04-25T12:36:52;3.6;;;0.9;;
32451;SDS011;45528;52.102;5.242;2023-04-25T12:40:07;6.4;;;1.11;;
32451;SDS011;45528;52.102;5.242;2023-04-25T12:41:44;5.8;;;1.11;;
32451;SDS011;45528;52.102;5.242;2023-04-25T12:43:21;3.7;;;0.9;;
32451;SDS011;45528;52.102;5.242;2023-04-25T12:46:33;6.2;;;0.9;;
32451;SDS011;45528;52.102;5.242;2023-04-25T12:48:09;4.3;;;0.8;;